CZST

Stewart Airport

Stewart, , Canada
METAR CZST 190100Z VRB02KT 15SM FEW075 18/01 A3005 RMK CU2 LAST STFD OBS/NEXT191300Z SLP176 DENSITY ALT 300FT
Observed Flight Rules
Sep-19 @ 01:00 UTC (4 hours ago) Visual Flight Rules
Wind Visibility Clouds
Variable at 2 knots 15 miles
  • Few at 7,500' AGL
Temperatures Readings
Current 18°C / 64°F
Dewpoint 1°C / 34°F
Humidity 32%
Altimeter 30.05" Hg
Pressure 1017.6 hPa
Elevation 7
METAR CZST 190100Z VRB02KT 15SM FEW075 18/01 A3005 RMK CU2 LAST STFD OBS/NEXT191300Z SLP176 DENSITY ALT 300FT
Observed Flight Rules
Sep-19 @ 01:00 UTC
(4 hours ago)
VFR
Wind Visibility
Variable at 2 knots 15 miles
Clouds
  • Few at 7,500' AGL
Temperature Dewpoint
18°C / 64°F 1°C / 34°F
Humidity Altimeter Pressure
32% 30.05" Hg 1017.6 hPa